Benwood, Indiana
Current Conditions -  °F | °C
As of 5:53 PM on Thursday 20 Nov 2014 (Local Time) from KHUF Reporting Station
Clear Clear  
Wind Chill: 20°   Ceiling: Unl
Heat Index: 28°   Visibility: 10mi
Dew Point: 16°   Wind: 8mph
Humidity: 61%   Direction: 260°W
Pressure: 30.21"   Gusts: NA
Location:  39.5158°N, 87.1262°W
Report Text: KHUF 202253Z 26007KT 10SM CLR M02/M09 A3021 RMK AO2 SLP239 T10221089
Loading
Personal Weather Stations






























Interactive Weather Map New forecast layout! Learn more

10-Day Weather Forecast

Advertisements
Track Severe Weather on mobile